createdAt,value
2018-11-06T00:01:51.464Z,12.20
2018-11-06T00:04:22.116Z,12.10
2018-11-06T00:06:50.604Z,12.10
2018-11-06T00:09:19.149Z,12.10
2018-11-06T00:11:47.563Z,12.00
2018-11-06T00:14:16.043Z,11.90
2018-11-06T00:16:44.550Z,11.90
2018-11-06T00:19:13.116Z,11.90
2018-11-06T00:21:41.606Z,11.90
2018-11-06T00:24:10.087Z,11.90
2018-11-06T00:26:38.587Z,11.90
2018-11-06T00:29:07.118Z,11.90
2018-11-06T00:31:35.624Z,11.90
2018-11-06T00:34:04.165Z,11.90
2018-11-06T00:36:32.759Z,11.90
2018-11-06T00:39:01.234Z,11.90
2018-11-06T00:41:29.717Z,11.90
2018-11-06T00:43:58.183Z,11.90
2018-11-06T00:46:26.666Z,11.80
2018-11-06T00:48:55.122Z,11.80
2018-11-06T00:51:23.581Z,11.80
2018-11-06T00:53:52.051Z,11.80
2018-11-06T00:56:20.610Z,11.90
2018-11-06T00:58:49.167Z,11.90
2018-11-06T01:01:17.677Z,11.90
2018-11-06T01:03:54.536Z,11.90
2018-11-06T01:06:23.634Z,11.90
2018-11-06T01:08:52.099Z,11.80
2018-11-06T01:11:20.585Z,11.80
2018-11-06T01:13:49.067Z,11.70
2018-11-06T01:16:17.551Z,11.70
2018-11-06T01:18:46.003Z,11.60
2018-11-06T01:21:14.460Z,11.50
2018-11-06T01:23:42.926Z,11.50
2018-11-06T01:26:11.418Z,11.40
2018-11-06T01:28:39.873Z,11.30
2018-11-06T01:31:08.365Z,11.20
2018-11-06T01:33:36.835Z,11.10
2018-11-06T01:36:05.547Z,11.10
2018-11-06T01:38:34.006Z,11.20
2018-11-06T01:41:02.530Z,11.10
2018-11-06T01:43:30.990Z,11.10
2018-11-06T01:45:59.609Z,11.10
2018-11-06T01:48:28.065Z,11.10
2018-11-06T01:50:56.518Z,11.10
2018-11-06T01:53:24.983Z,11.10
2018-11-06T01:55:53.453Z,11.00
2018-11-06T01:58:21.922Z,11.00
2018-11-06T02:00:50.386Z,10.90
2018-11-06T02:03:18.839Z,10.90
2018-11-06T02:05:47.346Z,10.90
2018-11-06T02:08:15.910Z,10.90
2018-11-06T02:10:44.382Z,10.80
2018-11-06T02:13:12.890Z,10.80
2018-11-06T02:15:41.350Z,10.70
2018-11-06T02:18:09.843Z,10.70
2018-11-06T02:20:38.345Z,10.80
2018-11-06T02:23:06.848Z,10.80
2018-11-06T02:25:35.301Z,10.80
2018-11-06T02:28:03.771Z,10.80
2018-11-06T02:30:32.311Z,10.80
2018-11-06T02:33:02.485Z,10.70
2018-11-06T02:35:31.058Z,10.80
2018-11-06T02:37:59.561Z,10.70
2018-11-06T02:40:28.131Z,10.70
2018-11-06T02:42:56.604Z,10.70
2018-11-06T02:45:25.088Z,10.70
2018-11-06T02:47:53.569Z,10.70
2018-11-06T02:50:22.046Z,10.60
2018-11-06T02:52:50.554Z,10.60
2018-11-06T02:55:19.094Z,10.50
2018-11-06T02:57:47.576Z,10.50
2018-11-06T03:00:17.192Z,10.40
2018-11-06T03:02:46.802Z,10.40
2018-11-06T03:05:15.327Z,10.40
2018-11-06T03:07:43.803Z,10.40
2018-11-06T03:10:13.346Z,10.40
2018-11-06T03:12:42.763Z,10.30
2018-11-06T03:15:12.457Z,10.30
2018-11-06T03:17:40.961Z,10.30
2018-11-06T03:20:10.574Z,10.30
2018-11-06T03:22:39.353Z,10.20
2018-11-06T03:25:08.249Z,10.20
2018-11-06T03:27:36.742Z,10.10
2018-11-06T03:30:07.534Z,10.00
2018-11-06T03:32:36.014Z,10.00
2018-11-06T03:35:04.951Z,10.00
2018-11-06T03:37:33.408Z,9.90
2018-11-06T03:40:01.878Z,9.80
2018-11-06T03:42:30.370Z,9.80
2018-11-06T03:44:58.825Z,9.70
2018-11-06T03:47:27.303Z,9.70
2018-11-06T03:49:55.747Z,9.60
2018-11-06T03:52:24.229Z,9.50
2018-11-06T03:54:52.746Z,9.50
2018-11-06T03:57:22.118Z,9.50
2018-11-06T03:59:50.569Z,9.50
2018-11-06T04:02:19.047Z,9.40
2018-11-06T04:04:47.630Z,9.40
2018-11-06T04:07:16.121Z,9.40
2018-11-06T04:09:44.625Z,9.30
2018-11-06T04:12:13.116Z,9.30
2018-11-06T04:14:41.579Z,9.40
2018-11-06T04:17:10.066Z,9.40
2018-11-06T04:19:38.562Z,9.40
2018-11-06T04:22:07.029Z,9.40
2018-11-06T04:24:35.471Z,9.30
2018-11-06T04:27:03.958Z,9.30
2018-11-06T04:29:32.414Z,9.30
2018-11-06T04:32:00.885Z,9.30
2018-11-06T04:34:29.338Z,9.30
2018-11-06T04:36:57.808Z,9.20
2018-11-06T04:39:26.275Z,9.20
2018-11-06T04:41:54.726Z,9.20
2018-11-06T04:44:23.814Z,9.20
2018-11-06T04:46:52.287Z,9.10
2018-11-06T04:49:20.773Z,9.10
2018-11-06T04:51:49.207Z,9.10
2018-11-06T04:54:17.683Z,9.00
2018-11-06T04:56:46.134Z,8.90
2018-11-06T04:59:14.591Z,8.90
2018-11-06T05:01:43.073Z,8.90
2018-11-06T05:04:11.746Z,8.80
2018-11-06T05:06:40.262Z,8.80
2018-11-06T05:09:09.250Z,8.90
2018-11-06T05:11:37.840Z,8.90
2018-11-06T05:14:06.386Z,8.90
2018-11-06T05:16:34.829Z,8.90
2018-11-06T05:19:03.346Z,8.90
2018-11-06T05:21:31.783Z,8.80
2018-11-06T05:24:00.343Z,8.80
2018-11-06T05:26:28.793Z,8.80
2018-11-06T05:28:57.261Z,8.80
2018-11-06T05:31:25.731Z,8.80
2018-11-06T05:33:54.221Z,8.80
2018-11-06T05:36:22.700Z,8.80
2018-11-06T05:38:51.223Z,8.80
2018-11-06T05:41:19.706Z,8.70
2018-11-06T05:43:48.222Z,8.70
2018-11-06T05:46:16.670Z,8.80
2018-11-06T05:48:45.163Z,8.80
2018-11-06T05:51:13.642Z,8.80
2018-11-06T05:53:42.145Z,8.70
2018-11-06T05:56:10.636Z,8.70
2018-11-06T05:58:39.078Z,8.70
2018-11-06T06:01:07.585Z,8.60
2018-11-06T06:03:36.080Z,8.60
2018-11-06T06:06:04.562Z,8.60
2018-11-06T06:08:33.037Z,8.60
2018-11-06T06:11:01.541Z,8.60
2018-11-06T06:13:29.995Z,8.60
2018-11-06T06:15:58.442Z,8.60
2018-11-06T06:18:26.926Z,8.60
2018-11-06T06:20:55.441Z,8.60
2018-11-06T06:23:23.913Z,8.60
2018-11-06T06:25:52.375Z,8.60
2018-11-06T06:28:20.868Z,8.60
2018-11-06T06:30:49.330Z,8.60
2018-11-06T06:33:17.835Z,8.60
2018-11-06T06:35:46.305Z,8.60
2018-11-06T06:38:14.766Z,8.60
2018-11-06T06:40:43.303Z,8.60
2018-11-06T06:43:11.730Z,8.70
2018-11-06T06:45:40.218Z,8.70
2018-11-06T06:48:08.789Z,8.70
2018-11-06T06:50:37.261Z,8.70
2018-11-06T06:53:06.945Z,8.70
2018-11-06T06:55:35.438Z,8.70
2018-11-06T06:58:03.930Z,8.70
2018-11-06T07:00:32.394Z,8.70
2018-11-06T07:03:00.859Z,8.70
2018-11-06T07:05:29.322Z,8.80
2018-11-06T07:07:57.793Z,8.70
2018-11-06T07:10:26.275Z,8.70
2018-11-06T07:12:54.807Z,8.80
2018-11-06T07:15:23.495Z,8.90
2018-11-06T07:17:52.467Z,8.90
2018-11-06T07:20:22.403Z,8.90
2018-11-06T07:22:50.922Z,9.00
2018-11-06T07:25:19.428Z,9.00
2018-11-06T07:27:48.438Z,9.00
2018-11-06T07:30:18.034Z,9.00
2018-11-06T07:32:46.867Z,9.10
2018-11-06T07:35:16.182Z,9.10
2018-11-06T07:37:45.035Z,9.20
2018-11-06T07:40:14.751Z,9.20
2018-11-06T07:42:43.271Z,9.30
2018-11-06T07:45:14.475Z,9.40
2018-11-06T07:47:43.002Z,9.40
2018-11-06T07:50:12.332Z,9.50
2018-11-06T07:52:41.026Z,9.60
2018-11-06T07:55:11.981Z,9.70
2018-11-06T07:57:40.682Z,9.70
2018-11-06T08:00:20.369Z,9.80
2018-11-06T08:02:49.314Z,9.90
2018-11-06T08:05:18.101Z,10.00
2018-11-06T08:07:47.479Z,10.10
2018-11-06T08:10:15.977Z,10.20
2018-11-06T08:12:45.689Z,10.30
2018-11-06T08:15:14.472Z,10.30
2018-11-06T08:17:43.972Z,10.40
2018-11-06T08:20:12.668Z,10.50
2018-11-06T08:22:41.115Z,10.60
2018-11-06T08:25:12.902Z,10.60
2018-11-06T08:27:42.214Z,10.70
2018-11-06T08:30:11.307Z,10.80
2018-11-06T08:32:40.426Z,10.90
2018-11-06T08:35:10.791Z,10.90
2018-11-06T08:37:39.306Z,11.00
2018-11-06T08:40:08.669Z,11.00
2018-11-06T08:42:37.420Z,11.20
2018-11-06T08:45:07.416Z,11.20
2018-11-06T08:47:35.882Z,11.30
2018-11-06T08:50:04.649Z,11.40
2018-11-06T08:52:33.140Z,11.40
2018-11-06T08:55:01.613Z,11.60
2018-11-06T08:57:30.091Z,11.60
2018-11-06T08:59:58.544Z,11.70
2018-11-06T09:02:27.084Z,11.90
2018-11-06T09:04:55.594Z,12.10
2018-11-06T09:07:24.063Z,12.20
2018-11-06T09:09:52.550Z,12.40
2018-11-06T09:12:21.011Z,12.50
2018-11-06T09:14:49.492Z,12.70
2018-11-06T09:17:17.998Z,12.80
2018-11-06T09:19:46.505Z,12.90
2018-11-06T09:22:15.002Z,13.10
2018-11-06T09:24:43.494Z,13.40
2018-11-06T09:27:11.991Z,13.40
2018-11-06T09:29:40.471Z,13.50
2018-11-06T09:32:08.926Z,13.40
2018-11-06T09:34:37.374Z,13.50
2018-11-06T09:37:06.033Z,13.60
2018-11-06T09:39:34.510Z,13.60
2018-11-06T09:42:02.971Z,13.70
2018-11-06T09:46:59.926Z,13.70
2018-11-06T09:49:28.378Z,13.70
2018-11-06T09:51:56.843Z,13.80
2018-11-06T09:54:25.322Z,13.70
2018-11-06T09:56:53.821Z,13.70
2018-11-06T09:59:22.298Z,13.80
2018-11-06T10:01:50.763Z,13.90
2018-11-06T10:04:19.238Z,14.00
2018-11-06T10:06:47.985Z,14.10
2018-11-06T10:09:16.263Z,14.30
2018-11-06T10:11:44.745Z,14.60
2018-11-06T10:14:13.261Z,14.90
2018-11-06T10:16:41.729Z,15.00
2018-11-06T10:19:10.205Z,15.10
2018-11-06T10:21:38.710Z,15.10
2018-11-06T10:24:07.210Z,15.00
2018-11-06T10:26:35.729Z,15.00
2018-11-06T10:29:04.499Z,14.80
2018-11-06T10:31:33.571Z,14.90
2018-11-06T10:34:02.052Z,14.90
2018-11-06T10:36:30.550Z,14.90
2018-11-06T10:38:59.022Z,14.90
2018-11-06T10:41:27.504Z,15.00
2018-11-06T10:43:55.958Z,15.00
2018-11-06T10:46:24.675Z,15.10
2018-11-06T10:48:53.117Z,15.10
2018-11-06T10:51:21.597Z,15.10
2018-11-06T10:53:50.043Z,15.20
2018-11-06T10:56:18.511Z,15.30
2018-11-06T10:58:46.996Z,15.30
2018-11-06T11:01:20.753Z,15.30
2018-11-06T11:03:54.654Z,15.30
2018-11-06T11:06:23.098Z,15.20
2018-11-06T11:08:51.570Z,15.10
2018-11-06T11:11:20.034Z,14.90
2018-11-06T11:13:48.618Z,15.00
2018-11-06T11:16:17.066Z,15.00
2018-11-06T11:18:45.544Z,15.00
2018-11-06T11:21:14.041Z,15.00
2018-11-06T11:23:42.525Z,15.00
2018-11-06T11:26:10.983Z,15.00
2018-11-06T11:28:39.486Z,15.00
2018-11-06T11:31:07.949Z,15.00
2018-11-06T11:33:36.403Z,15.00
2018-11-06T11:36:04.914Z,15.00
2018-11-06T11:38:33.405Z,15.00
2018-11-06T11:41:01.876Z,15.00
2018-11-06T11:43:30.563Z,15.10
2018-11-06T11:45:59.113Z,15.10
2018-11-06T11:48:27.496Z,15.10
2018-11-06T11:50:55.986Z,15.10
2018-11-06T11:53:24.502Z,15.20
2018-11-06T11:55:52.949Z,15.20
2018-11-06T11:58:21.429Z,15.20
2018-11-06T12:00:49.878Z,15.20
2018-11-06T12:03:18.349Z,15.10
2018-11-06T12:05:46.803Z,15.20
2018-11-06T12:08:15.301Z,15.30
2018-11-06T12:10:43.854Z,15.20
2018-11-06T12:13:12.335Z,15.20
2018-11-06T12:15:40.841Z,15.20
2018-11-06T12:18:09.398Z,15.20
2018-11-06T12:20:37.824Z,15.20
2018-11-06T12:23:06.337Z,15.20
2018-11-06T12:25:34.900Z,15.30
2018-11-06T12:28:03.304Z,15.40
2018-11-06T12:30:31.784Z,15.30
2018-11-06T12:33:00.284Z,15.30
2018-11-06T12:35:28.847Z,15.20
2018-11-06T12:37:57.333Z,15.20
2018-11-06T12:40:25.802Z,15.20
2018-11-06T12:42:54.302Z,15.10
2018-11-06T12:45:22.797Z,15.10
2018-11-06T12:47:51.292Z,15.10
2018-11-06T12:50:19.802Z,15.10
2018-11-06T12:52:48.248Z,15.00
2018-11-06T12:55:17.024Z,15.00
2018-11-06T12:57:45.585Z,15.00
2018-11-06T13:00:15.726Z,15.10
2018-11-06T13:02:44.195Z,15.10
2018-11-06T13:05:12.647Z,15.00
2018-11-06T13:07:42.080Z,15.00
2018-11-06T13:10:11.482Z,15.00
2018-11-06T13:12:40.316Z,15.00
2018-11-06T13:15:09.070Z,15.00
2018-11-06T13:17:37.757Z,15.00
2018-11-06T13:20:08.207Z,15.10
2018-11-06T13:22:36.854Z,15.00
2018-11-06T13:25:06.766Z,15.10
2018-11-06T13:27:35.579Z,15.00
2018-11-06T13:30:04.122Z,14.90
2018-11-06T13:32:32.752Z,14.90
2018-11-06T13:35:01.246Z,14.80
2018-11-06T13:37:29.734Z,14.80
2018-11-06T13:39:58.243Z,14.80
2018-11-06T13:42:27.167Z,14.70
2018-11-06T13:44:55.814Z,14.70
2018-11-06T13:47:23.982Z,14.60
2018-11-06T13:49:52.470Z,14.60
2018-11-06T13:52:21.005Z,14.50
2018-11-06T13:54:49.422Z,14.50
2018-11-06T13:57:17.917Z,14.40
2018-11-06T13:59:46.534Z,14.40
2018-11-06T14:02:15.211Z,14.30
2018-11-06T14:04:43.681Z,14.30
2018-11-06T14:07:12.181Z,14.30
2018-11-06T14:09:40.655Z,14.30
2018-11-06T14:12:09.121Z,14.30
2018-11-06T14:14:37.617Z,14.30
2018-11-06T14:17:06.101Z,14.30
2018-11-06T14:19:34.578Z,14.20
2018-11-06T14:22:03.068Z,14.20
2018-11-06T14:24:31.534Z,14.20
2018-11-06T14:27:00.010Z,14.20
2018-11-06T14:29:28.483Z,14.10
2018-11-06T14:31:56.947Z,14.10
2018-11-06T14:34:25.427Z,14.00
2018-11-06T14:36:54.042Z,14.00
2018-11-06T14:39:22.505Z,14.00
2018-11-06T14:41:50.980Z,14.00
2018-11-06T14:44:19.475Z,14.00
2018-11-06T14:46:47.935Z,13.90
2018-11-06T14:49:16.450Z,13.90
2018-11-06T14:51:44.926Z,13.90
2018-11-06T14:54:13.449Z,13.90
2018-11-06T14:56:41.917Z,13.90
2018-11-06T14:59:10.386Z,13.90
2018-11-06T15:01:38.857Z,13.90
2018-11-06T15:04:07.334Z,13.90
2018-11-06T15:06:35.825Z,13.90
2018-11-06T15:09:06.275Z,13.80
2018-11-06T15:11:34.745Z,13.70
2018-11-06T15:14:03.232Z,13.70
2018-11-06T15:16:31.746Z,13.60
2018-11-06T15:19:00.249Z,13.50
2018-11-06T15:21:28.733Z,13.40
2018-11-06T15:23:57.210Z,13.40
2018-11-06T15:26:25.691Z,13.30
2018-11-06T15:28:54.203Z,13.30
2018-11-06T15:31:22.737Z,13.20
2018-11-06T15:33:51.246Z,13.10
2018-11-06T15:36:19.718Z,13.00
2018-11-06T15:38:48.173Z,13.00
2018-11-06T15:41:16.775Z,13.00
2018-11-06T15:43:45.180Z,12.90
2018-11-06T15:46:13.631Z,12.90
2018-11-06T15:48:42.231Z,12.80
2018-11-06T15:51:10.707Z,12.90
2018-11-06T15:53:39.235Z,12.80
2018-11-06T15:56:07.699Z,12.80
2018-11-06T15:58:36.247Z,12.80
2018-11-06T16:01:04.807Z,12.70
2018-11-06T16:03:33.321Z,12.70
2018-11-06T16:06:01.763Z,12.60
2018-11-06T16:08:30.241Z,12.60
2018-11-06T16:10:58.752Z,12.50
2018-11-06T16:13:27.235Z,12.50
2018-11-06T16:15:55.705Z,12.50
2018-11-06T16:18:24.169Z,12.60
2018-11-06T16:20:52.683Z,12.50
2018-11-06T16:23:21.182Z,12.60
2018-11-06T16:25:49.706Z,12.50
2018-11-06T16:28:18.194Z,12.50
2018-11-06T16:30:46.645Z,12.50
2018-11-06T16:33:15.106Z,12.50
2018-11-06T16:35:43.631Z,12.40
2018-11-06T16:38:12.083Z,12.30
2018-11-06T16:40:40.609Z,12.30
2018-11-06T16:43:09.070Z,12.20
2018-11-06T16:45:37.533Z,12.20
2018-11-06T16:48:06.080Z,12.20
2018-11-06T16:50:34.590Z,12.10
2018-11-06T16:53:03.071Z,12.10
2018-11-06T16:55:31.581Z,12.10
2018-11-06T16:58:00.054Z,12.10
2018-11-06T17:00:29.064Z,12.00
2018-11-06T17:02:57.405Z,12.00
2018-11-06T17:05:25.885Z,12.00
2018-11-06T17:07:54.359Z,12.10
2018-11-06T17:10:22.853Z,12.10
2018-11-06T17:12:51.329Z,12.30
2018-11-06T17:15:22.020Z,12.20
2018-11-06T17:17:51.619Z,12.20
2018-11-06T17:20:20.593Z,12.20
2018-11-06T17:22:49.104Z,12.30
2018-11-06T17:25:18.808Z,12.30
2018-11-06T17:27:47.262Z,12.40
2018-11-06T17:30:16.907Z,12.40
2018-11-06T17:32:45.495Z,12.30
2018-11-06T17:35:15.602Z,12.30
2018-11-06T17:37:44.302Z,12.30
2018-11-06T17:40:14.182Z,12.20
2018-11-06T17:42:42.997Z,12.10
2018-11-06T17:45:14.697Z,12.00
2018-11-06T17:47:43.442Z,12.00
2018-11-06T17:50:13.435Z,12.00
2018-11-06T17:52:41.956Z,12.00
2018-11-06T17:55:12.218Z,11.90
2018-11-06T17:57:40.959Z,11.80
2018-11-06T18:00:14.269Z,11.80
2018-11-06T18:02:43.009Z,11.80
2018-11-06T18:05:12.532Z,11.80
2018-11-06T18:07:41.734Z,11.70
2018-11-06T18:10:12.861Z,11.80
2018-11-06T18:12:41.365Z,11.70
2018-11-06T18:15:09.844Z,11.80
2018-11-06T18:17:38.973Z,11.80
2018-11-06T18:20:08.598Z,11.70
2018-11-06T18:22:37.099Z,11.70
2018-11-06T18:25:06.388Z,11.70
2018-11-06T18:27:34.831Z,11.60
2018-11-06T18:30:03.351Z,11.60
2018-11-06T18:32:31.815Z,11.60
2018-11-06T18:35:00.294Z,11.60
2018-11-06T18:37:28.785Z,11.50
2018-11-06T18:39:57.247Z,11.50
2018-11-06T18:42:25.714Z,11.50
2018-11-06T18:44:54.178Z,11.40
2018-11-06T18:47:22.704Z,11.40
2018-11-06T18:49:51.168Z,11.30
2018-11-06T18:52:19.647Z,11.30
2018-11-06T18:54:48.125Z,11.30
2018-11-06T18:57:16.619Z,11.20
2018-11-06T18:59:45.084Z,11.20
2018-11-06T19:02:13.573Z,11.10
2018-11-06T19:04:42.039Z,11.10
2018-11-06T19:07:10.525Z,11.00
2018-11-06T19:09:38.981Z,11.00
2018-11-06T19:12:07.446Z,11.00
2018-11-06T19:14:35.933Z,10.90
2018-11-06T19:17:04.488Z,10.90
2018-11-06T19:19:32.925Z,10.80
2018-11-06T19:22:01.383Z,10.80
2018-11-06T19:24:29.865Z,10.70
2018-11-06T19:26:58.412Z,10.70
2018-11-06T19:29:28.297Z,10.60
2018-11-06T19:31:56.807Z,10.60
2018-11-06T19:34:25.297Z,10.50
2018-11-06T19:36:53.791Z,10.50
2018-11-06T19:39:22.267Z,10.40
2018-11-06T19:41:50.750Z,10.40
2018-11-06T19:44:19.226Z,10.30
2018-11-06T19:46:47.681Z,10.30
2018-11-06T19:49:16.142Z,10.20
2018-11-06T19:51:44.625Z,10.20
2018-11-06T19:54:13.157Z,10.20
2018-11-06T19:56:41.657Z,10.20
2018-11-06T19:59:10.203Z,10.20
2018-11-06T20:01:38.682Z,10.10
2018-11-06T20:04:07.143Z,10.10
2018-11-06T20:06:35.600Z,10.10
2018-11-06T20:09:06.090Z,10.00
2018-11-06T20:11:34.583Z,10.00
2018-11-06T20:14:03.133Z,10.00
2018-11-06T20:16:31.662Z,10.00
2018-11-06T20:19:00.109Z,10.00
2018-11-06T20:21:28.762Z,10.00
2018-11-06T20:23:57.080Z,10.00
2018-11-06T20:26:25.534Z,10.00
2018-11-06T20:28:54.035Z,10.00
2018-11-06T20:31:22.518Z,9.90
2018-11-06T20:33:51.069Z,9.90
2018-11-06T20:36:19.456Z,9.90
2018-11-06T20:38:47.926Z,9.90
2018-11-06T20:41:16.426Z,9.90
2018-11-06T20:43:44.895Z,9.90
2018-11-06T20:46:13.417Z,9.90
2018-11-06T20:48:41.872Z,10.00
2018-11-06T20:51:10.454Z,10.00
2018-11-06T20:53:39.205Z,10.00
2018-11-06T20:56:07.442Z,9.90
2018-11-06T20:58:36.024Z,9.90
2018-11-06T21:01:04.643Z,10.00
2018-11-06T21:03:33.078Z,10.00
2018-11-06T21:06:01.607Z,10.00
2018-11-06T21:08:30.157Z,10.00
2018-11-06T21:10:58.718Z,10.10
2018-11-06T21:13:27.233Z,10.10
2018-11-06T21:15:55.702Z,10.10
2018-11-06T21:18:24.243Z,10.20
2018-11-06T21:20:52.741Z,10.20
2018-11-06T21:23:21.193Z,10.20
2018-11-06T21:25:49.978Z,10.30
2018-11-06T21:28:18.215Z,10.30
2018-11-06T21:30:46.763Z,10.40
2018-11-06T21:33:15.278Z,10.40
2018-11-06T21:35:44.339Z,10.40
2018-11-06T21:38:12.866Z,10.40
2018-11-06T21:40:41.371Z,10.40
2018-11-06T21:43:09.874Z,10.30
2018-11-06T21:45:38.467Z,10.40
2018-11-06T21:48:07.032Z,10.40
2018-11-06T21:50:35.529Z,10.40
2018-11-06T21:53:04.970Z,10.40
2018-11-06T21:55:33.499Z,10.40
2018-11-06T21:58:02.019Z,10.50
2018-11-06T22:00:30.642Z,10.50
2018-11-06T22:02:59.056Z,10.50
2018-11-06T22:05:29.067Z,10.50
2018-11-06T22:07:57.933Z,10.50
2018-11-06T22:10:26.449Z,10.60
2018-11-06T22:12:55.006Z,10.60
2018-11-06T22:15:23.427Z,10.70
2018-11-06T22:17:51.945Z,10.60
2018-11-06T22:20:20.677Z,10.70
2018-11-06T22:22:49.583Z,10.70
2018-11-06T22:25:18.069Z,10.70
2018-11-06T22:27:46.582Z,10.70
2018-11-06T22:30:16.003Z,10.80
2018-11-06T22:32:46.451Z,10.80
2018-11-06T22:35:16.981Z,10.90
2018-11-06T22:37:45.938Z,10.90
2018-11-06T22:40:16.006Z,10.90
2018-11-06T22:42:44.516Z,10.90
2018-11-06T22:45:15.418Z,10.90
2018-11-06T22:47:43.946Z,10.80
2018-11-06T22:50:13.786Z,10.80
2018-11-06T22:52:42.592Z,10.90
2018-11-06T22:55:11.059Z,10.80
2018-11-06T22:57:39.618Z,10.80
2018-11-06T23:00:15.198Z,10.80
2018-11-06T23:02:43.992Z,10.70
2018-11-06T23:05:12.659Z,10.70
2018-11-06T23:07:46.603Z,10.60
2018-11-06T23:10:15.131Z,10.60
2018-11-06T23:12:43.876Z,10.60
2018-11-06T23:15:12.402Z,10.50
2018-11-06T23:17:40.941Z,10.50
2018-11-06T23:20:09.916Z,10.40
2018-11-06T23:22:38.682Z,10.40
2018-11-06T23:25:07.427Z,10.40
2018-11-06T23:27:36.067Z,10.40
2018-11-06T23:30:06.919Z,10.30
2018-11-06T23:32:35.713Z,10.30
2018-11-06T23:35:04.788Z,10.30
2018-11-06T23:37:33.601Z,10.30
2018-11-06T23:40:02.386Z,10.40
2018-11-06T23:42:31.346Z,10.30
2018-11-06T23:45:00.822Z,10.30
2018-11-06T23:47:29.681Z,10.30
2018-11-06T23:49:58.427Z,10.20
2018-11-06T23:52:27.298Z,10.20
2018-11-06T23:54:56.141Z,10.20
2018-11-06T23:57:25.396Z,10.20
2018-11-06T23:59:54.322Z,10.20
